Time;durP1;ratioP1;P1;durP2;ratioP2;P2;SDS_P1;SDS_P2;PMS_P1;PMS_P2;Temp;Humidity;BMP_temperature;BMP_pressure;BME280_temperature;BME280_humidity;BME280_pressure;Samples;Min_cycle;Max_cycle;Signal;HPM_P1;HPM_P2
2022/07/11 00:02:11;;;;;;;3.17;0.82;;;13.80;99.90;;;;;;4957672;29;20658;-85
2022/07/11 00:04:37;;;;;;;2.05;0.65;;;13.80;99.90;;;;;;4957617;29;20212;-84
2022/07/11 00:07:04;;;;;;;1.05;0.50;;;13.90;99.90;;;;;;4957594;29;20204;-85
2022/07/11 00:09:30;;;;;;;1.33;0.60;;;14.00;99.90;;;;;;4957513;28;20181;-84
2022/07/11 00:11:56;;;;;;;1.88;0.63;;;14.00;99.90;;;;;;4957212;29;20181;-84
2022/07/11 00:14:22;;;;;;;1.58;0.60;;;14.10;99.90;;;;;;4957190;29;20178;-83
2022/07/11 00:16:49;;;;;;;5.47;0.93;;;14.10;99.90;;;;;;4957351;29;20188;-85
2022/07/11 00:19:15;;;;;;;1.40;0.43;;;14.10;99.90;;;;;;4957529;29;20232;-85
2022/07/11 00:21:41;;;;;;;2.03;0.68;;;14.10;99.90;;;;;;4956277;29;20229;-85
2022/07/11 00:24:07;;;;;;;3.00;0.50;;;14.10;99.90;;;;;;4957259;29;20197;-85
2022/07/11 00:26:34;;;;;;;2.30;0.85;;;14.20;99.90;;;;;;4955515;28;20233;-83
2022/07/11 00:28:59;;;;;;;1.40;0.50;;;14.20;99.90;;;;;;4956975;28;20620;-86
2022/07/11 00:31:25;;;;;;;0.35;0.30;;;14.20;99.90;;;;;;4956163;29;20193;-84
2022/07/11 00:33:51;;;;;;;0.85;0.40;;;14.30;99.90;;;;;;4955875;29;20188;-85
2022/07/11 00:36:16;;;;;;;3.15;1.00;;;14.30;99.90;;;;;;4955975;28;20183;-86
2022/07/11 00:38:42;;;;;;;3.15;0.60;;;14.30;99.90;;;;;;4957013;29;20182;-85
2022/07/11 00:41:08;;;;;;;2.10;0.60;;;14.30;99.90;;;;;;4955964;28;20232;-85
2022/07/11 00:43:36;;;;;;;3.80;0.60;;;14.30;99.90;;;;;;4955418;29;20197;-86
2022/07/11 00:46:03;;;;;;;0.93;0.52;;;14.30;99.90;;;;;;4960336;28;20701;-85
2022/07/11 00:48:29;;;;;;;2.33;0.75;;;14.30;99.90;;;;;;4962488;28;20185;-85
2022/07/11 00:50:57;;;;;;;5.50;0.75;;;14.30;99.90;;;;;;4956946;29;20237;-86
2022/07/11 00:53:23;;;;;;;3.10;0.70;;;14.30;99.90;;;;;;4956781;29;20203;-86
2022/07/11 00:55:52;;;;;;;2.22;0.63;;;14.30;99.90;;;;;;4957131;28;20185;-85
2022/07/11 00:58:19;;;;;;;0.88;0.68;;;14.30;99.90;;;;;;4975913;28;20610;-86
2022/07/11 01:00:45;;;;;;;1.48;0.77;;;14.30;99.90;;;;;;4975986;28;20172;-85
2022/07/11 01:03:11;;;;;;;2.47;0.70;;;14.30;99.90;;;;;;4975734;28;20511;-84
2022/07/11 01:05:37;;;;;;;2.03;0.50;;;14.40;99.90;;;;;;4974540;28;20224;-84
2022/07/11 01:08:03;;;;;;;1.35;0.70;;;14.40;99.90;;;;;;4974355;28;20172;-84
2022/07/11 01:10:28;;;;;;;1.80;0.50;;;14.40;99.90;;;;;;4960308;28;20185;-86
2022/07/11 01:12:55;;;;;;;1.33;0.68;;;14.40;99.90;;;;;;4960751;28;20629;-86
2022/07/11 01:15:21;;;;;;;1.95;0.60;;;14.40;99.90;;;;;;4955464;28;20686;-84
2022/07/11 01:17:46;;;;;;;2.78;0.73;;;14.40;99.90;;;;;;4954979;29;20297;-84
2022/07/11 01:20:12;;;;;;;2.35;0.57;;;14.40;99.90;;;;;;4955071;29;20521;-84
2022/07/11 01:22:51;;;;;;;1.08;0.60;;;14.40;99.90;;;;;;4956291;29;20173;-84
2022/07/11 01:25:30;;;;;;;1.17;0.75;;;14.40;99.90;;;;;;4956103;28;20593;-84
2022/07/11 01:28:03;;;;;;;3.85;0.82;;;14.40;99.90;;;;;;4970631;28;20207;-85
2022/07/11 01:30:31;;;;;;;1.92;0.60;;;14.40;99.90;;;;;;4956253;28;20177;-84
2022/07/11 01:32:57;;;;;;;1.98;0.65;;;14.40;99.90;;;;;;4954826;29;20185;-84
2022/07/11 01:35:25;;;;;;;2.00;0.63;;;14.40;99.90;;;;;;4955998;28;20173;-83
2022/07/11 01:37:51;;;;;;;2.50;0.70;;;14.40;99.90;;;;;;4955857;29;20260;-84
2022/07/11 01:40:17;;;;;;;0.80;0.70;;;14.40;99.90;;;;;;4954693;29;20232;-83
2022/07/11 01:42:43;;;;;;;2.13;0.80;;;14.40;99.90;;;;;;4954459;29;20666;-84
2022/07/11 01:45:11;;;;;;;1.90;0.70;;;14.50;99.90;;;;;;4955856;28;20295;-84
2022/07/11 01:47:37;;;;;;;1.33;0.60;;;14.50;99.90;;;;;;4955784;28;20244;-85
2022/07/11 01:50:04;;;;;;;1.88;0.70;;;14.50;99.90;;;;;;4954573;29;20565;-84
2022/07/11 01:52:29;;;;;;;1.60;0.60;;;14.50;99.90;;;;;;4955633;29;20202;-84
2022/07/11 01:54:55;;;;;;;2.45;0.85;;;14.40;99.90;;;;;;4955865;28;20250;-83
2022/07/11 01:57:21;;;;;;;1.48;0.70;;;14.50;99.90;;;;;;4970349;28;20690;-85
2022/07/11 01:59:47;;;;;;;3.35;0.73;;;14.40;99.90;;;;;;4973802;28;20172;-84
2022/07/11 02:02:14;;;;;;;0.90;0.65;;;14.40;99.90;;;;;;4973793;28;20618;-84
2022/07/11 02:04:40;;;;;;;1.52;0.82;;;14.40;99.90;;;;;;4973545;28;20231;-84
2022/07/11 02:07:06;;;;;;;3.10;1.00;;;14.30;99.90;;;;;;4972959;28;20417;-84
2022/07/11 02:09:32;;;;;;;2.42;1.10;;;14.40;99.90;;;;;;4973525;28;20275;-85
2022/07/11 02:11:57;;;;;;;1.20;0.90;;;14.30;99.90;;;;;;4974845;28;20172;-86
2022/07/11 02:14:23;;;;;;;2.65;1.02;;;14.30;99.90;;;;;;4974959;28;20181;-85
2022/07/11 02:16:49;;;;;;;1.55;1.10;;;14.30;99.90;;;;;;4973818;28;20235;-85
2022/07/11 02:19:15;;;;;;;1.13;0.80;;;14.20;99.90;;;;;;4973552;28;20188;-86
2022/07/11 02:21:42;;;;;;;2.83;1.00;;;14.20;99.90;;;;;;4974763;28;20165;-85
2022/07/11 02:24:08;;;;;;;3.65;1.08;;;14.20;99.90;;;;;;4973744;28;20201;-86
2022/07/11 02:26:34;;;;;;;2.08;0.80;;;14.20;99.90;;;;;;4974338;28;20254;-85
2022/07/11 02:29:00;;;;;;;2.78;1.10;;;14.20;99.90;;;;;;4975111;28;20181;-86
2022/07/11 02:31:26;;;;;;;1.48;1.00;;;14.20;99.90;;;;;;4975151;28;20609;-86
2022/07/11 02:33:51;;;;;;;1.38;0.90;;;14.10;99.90;;;;;;4974715;28;20181;-85
2022/07/11 02:36:17;;;;;;;2.85;1.20;;;14.10;99.90;;;;;;4973541;28;20513;-86
2022/07/11 02:38:43;;;;;;;1.65;1.00;;;14.10;99.90;;;;;;4974860;28;20176;-84
2022/07/11 02:41:09;;;;;;;1.67;1.00;;;14.10;99.90;;;;;;4974693;28;20259;-83
2022/07/11 02:43:34;;;;;;;1.80;1.00;;;14.00;99.90;;;;;;4974454;28;20183;-85
2022/07/11 02:46:01;;;;;;;1.15;0.93;;;14.00;99.90;;;;;;4973484;28;20196;-84
2022/07/11 02:48:26;;;;;;;4.20;1.08;;;14.00;99.90;;;;;;4973268;28;20756;-84
2022/07/11 02:50:52;;;;;;;1.75;1.00;;;14.00;99.90;;;;;;4974466;28;20217;-83
2022/07/11 02:53:18;;;;;;;1.25;1.00;;;14.00;99.90;;;;;;4955978;28;20244;-83
2022/07/11 02:55:44;;;;;;;2.45;0.90;;;14.00;99.90;;;;;;4953931;28;20181;-85
2022/07/11 02:58:09;;;;;;;2.10;1.00;;;14.10;99.90;;;;;;4954936;29;20523;-84
2022/07/11 03:00:35;;;;;;;1.80;1.00;;;14.10;99.90;;;;;;4957927;28;20192;-84
2022/07/11 03:03:01;;;;;;;1.67;1.42;;;14.10;99.90;;;;;;4974380;28;20173;-83
2022/07/11 03:05:27;;;;;;;2.92;0.93;;;14.10;99.90;;;;;;4972858;28;20264;-84
2022/07/11 03:07:53;;;;;;;2.25;1.10;;;14.20;99.90;;;;;;4974569;28;20173;-83
2022/07/11 03:10:19;;;;;;;1.83;0.90;;;14.10;99.90;;;;;;4965518;28;20192;-85
2022/07/11 03:12:45;;;;;;;1.58;0.90;;;14.10;99.90;;;;;;4952450;28;20508;-83
2022/07/11 03:15:11;;;;;;;1.75;1.02;;;14.10;99.90;;;;;;4956294;28;20189;-83
2022/07/11 03:17:37;;;;;;;1.50;0.93;;;14.10;99.90;;;;;;4953583;29;20189;-84
2022/07/11 03:20:05;;;;;;;1.60;1.08;;;14.10;99.90;;;;;;4956739;28;20529;-83
2022/07/11 03:22:31;;;;;;;3.50;1.10;;;14.10;99.90;;;;;;4973139;28;20639;-84
2022/07/11 03:24:57;;;;;;;2.60;1.10;;;14.20;99.90;;;;;;4957013;29;20213;-84
2022/07/11 03:27:24;;;;;;;1.10;0.82;;;14.20;99.90;;;;;;4960578;28;20278;-84
2022/07/11 03:29:50;;;;;;;1.67;1.13;;;14.20;99.90;;;;;;4977644;28;20177;-84
2022/07/11 03:32:16;;;;;;;1.48;1.10;;;14.20;99.90;;;;;;4977595;28;20179;-84
2022/07/11 03:35:40;;;;;;;2.85;1.40;;;14.30;99.90;;;;;;4977568;28;20263;-84
2022/07/11 03:37:27;;;;;;;2.58;1.10;;;14.30;99.90;;;;;;4977377;28;20184;-84
2022/07/11 03:39:53;;;;;;;1.55;0.90;;;14.30;99.90;;;;;;4955513;28;20201;-85
2022/07/11 03:42:19;;;;;;;0.90;0.90;;;14.40;99.90;;;;;;4956263;29;20240;-85
2022/07/11 03:44:44;;;;;;;3.03;1.25;;;14.40;99.90;;;;;;4959547;28;20534;-83
2022/07/11 03:47:10;;;;;;;2.33;0.98;;;14.40;99.90;;;;;;4965224;28;20567;-84
2022/07/11 03:49:36;;;;;;;1.92;1.00;;;14.40;99.90;;;;;;4957727;29;20207;-85
2022/07/11 03:52:01;;;;;;;1.83;1.40;;;14.40;99.90;;;;;;4956856;29;20201;-86
2022/07/11 03:54:27;;;;;;;2.17;1.27;;;14.40;99.90;;;;;;4958093;29;20182;-85
2022/07/11 03:56:53;;;;;;;2.38;1.50;;;14.40;99.90;;;;;;4956430;29;20200;-84
2022/07/11 03:59:18;;;;;;;5.25;1.65;;;14.40;99.90;;;;;;4956469;29;20224;-84
2022/07/11 04:01:44;;;;;;;3.50;2.13;;;14.40;99.90;;;;;;4957816;29;20270;-85
2022/07/11 04:04:10;;;;;;;3.65;2.50;;;14.40;99.90;;;;;;4957764;29;20239;-86
2022/07/11 04:06:36;;;;;;;4.18;3.42;;;14.40;99.90;;;;;;4956579;29;20185;-85
2022/07/11 04:09:01;;;;;;;3.47;2.80;;;14.40;99.90;;;;;;4957773;29;20180;-85
2022/07/11 04:11:27;;;;;;;7.85;3.70;;;14.40;99.90;;;;;;4957444;29;20608;-85
2022/07/11 04:13:53;;;;;;;6.97;3.60;;;14.30;99.90;;;;;;4957544;29;20189;-84
2022/07/11 04:16:19;;;;;;;8.90;4.00;;;14.30;99.90;;;;;;4971786;28;20184;-86
2022/07/11 04:18:44;;;;;;;6.97;4.70;;;14.30;99.90;;;;;;4977006;28;20187;-83
2022/07/11 04:21:11;;;;;;;6.40;3.90;;;14.30;99.90;;;;;;4977106;28;20549;-85
2022/07/11 04:23:37;;;;;;;7.07;4.63;;;14.30;99.90;;;;;;4975295;28;20188;-86
2022/07/11 04:26:03;;;;;;;6.55;4.45;;;14.20;99.90;;;;;;4976580;28;20228;-85
2022/07/11 04:28:28;;;;;;;8.85;4.97;;;14.20;99.90;;;;;;4974860;28;20180;-85
2022/07/11 04:30:55;;;;;;;7.95;5.43;;;14.20;99.90;;;;;;4975013;28;20184;-85
2022/07/11 04:33:21;;;;;;;8.05;4.90;;;14.10;99.90;;;;;;4976675;28;20157;-85
2022/07/11 04:35:46;;;;;;;9.07;4.97;;;14.10;99.90;;;;;;4975317;28;20181;-85
2022/07/11 04:38:12;;;;;;;6.82;4.43;;;14.10;99.90;;;;;;4975813;28;20615;-83
2022/07/11 04:40:38;;;;;;;6.35;4.07;;;14.10;99.90;;;;;;4975339;28;20219;-85
2022/07/11 04:43:04;;;;;;;4.90;4.05;;;14.10;99.90;;;;;;4976150;28;20179;-87
2022/07/11 04:45:30;;;;;;;4.30;3.65;;;14.10;99.90;;;;;;4967290;28;20217;-86
2022/07/11 04:47:56;;;;;;;7.40;4.75;;;14.20;99.90;;;;;;4955772;28;20244;-85
2022/07/11 04:50:23;;;;;;;4.72;3.78;;;14.30;99.90;;;;;;4971947;28;20181;-86
2022/07/11 04:52:48;;;;;;;5.15;3.67;;;14.30;99.90;;;;;;4955895;29;20268;-86
2022/07/11 04:55:16;;;;;;;5.63;3.38;;;14.40;99.90;;;;;;4967064;28;20288;-84
2022/07/11 04:57:41;;;;;;;4.85;3.40;;;14.60;99.90;;;;;;4974533;28;20200;-85
2022/07/11 05:00:07;;;;;;;5.40;3.53;;;14.70;99.90;;;;;;4976331;28;20184;-86
2022/07/11 05:02:33;;;;;;;3.67;3.17;;;14.80;99.90;;;;;;4969454;28;20205;-85
2022/07/11 05:04:59;;;;;;;5.00;3.40;;;14.90;99.90;;;;;;4954288;29;20244;-85
2022/07/11 05:07:24;;;;;;;5.90;3.70;;;14.90;99.90;;;;;;4937696;29;20182;-84
2022/07/11 05:09:50;;;;;;;5.60;3.38;;;14.90;99.90;;;;;;4936308;29;20276;-84
2022/07/11 05:12:16;;;;;;;6.43;3.72;;;14.90;99.90;;;;;;4969785;28;20192;-85
2022/07/11 05:14:41;;;;;;;6.78;3.70;;;15.00;99.90;;;;;;4956891;28;20216;-86
2022/07/11 05:17:07;;;;;;;3.00;2.65;;;15.00;99.90;;;;;;4974700;28;20181;-86
2022/07/11 05:19:33;;;;;;;3.58;2.55;;;15.10;99.90;;;;;;4974729;28;20631;-86
2022/07/11 05:22:00;;;;;;;6.00;2.63;;;15.20;99.90;;;;;;4974429;28;20199;-85
2022/07/11 05:24:26;;;;;;;4.22;2.60;;;15.20;99.90;;;;;;4975699;28;20208;-84
2022/07/11 05:26:51;;;;;;;3.45;2.45;;;15.30;99.90;;;;;;4975127;28;20231;-85
2022/07/11 05:29:17;;;;;;;3.70;3.03;;;15.50;99.90;;;;;;4955988;28;20914;-83
2022/07/11 05:31:49;;;;;;;5.70;2.95;;;15.70;99.90;;;;;;4956401;29;20196;-84
2022/07/11 05:34:15;;;;;;;5.30;2.85;;;15.60;99.90;;;;;;4951227;29;20184;-84
2022/07/11 05:36:43;;;;;;;6.25;3.10;;;15.60;99.90;;;;;;4937050;29;20272;-84
2022/07/11 05:39:09;;;;;;;6.53;2.45;;;15.50;99.90;;;;;;4954436;29;20181;-86
2022/07/11 05:41:34;;;;;;;6.30;2.35;;;15.40;99.90;;;;;;4953958;28;20211;-87
2022/07/11 05:44:00;;;;;;;4.75;2.92;;;15.20;99.90;;;;;;4954220;29;20644;-86
2022/07/11 05:46:26;;;;;;;3.80;2.50;;;15.20;99.90;;;;;;4962060;28;20582;-84
2022/07/11 05:48:51;;;;;;;7.57;2.80;;;15.00;99.90;;;;;;4953253;28;20185;-85
2022/07/11 05:51:18;;;;;;;5.70;2.97;;;15.00;99.90;;;;;;4954492;28;20249;-84
2022/07/11 05:53:44;;;;;;;3.92;2.28;;;14.90;99.90;;;;;;4954422;29;20520;-84
2022/07/11 05:56:10;;;;;;;3.13;1.85;;;15.00;99.90;;;;;;4954668;28;20189;-85
2022/07/11 05:58:36;;;;;;;7.78;2.13;;;15.10;99.90;;;;;;4954449;28;20192;-85
2022/07/11 06:01:01;;;;;;;3.75;2.00;;;15.10;99.90;;;;;;4953969;29;20185;-85
2022/07/11 06:03:27;;;;;;;4.00;2.47;;;15.20;99.90;;;;;;4955947;29;20239;-85
2022/07/11 06:05:53;;;;;;;4.88;1.90;;;15.20;99.90;;;;;;4955914;28;20177;-86
2022/07/11 06:11:03;;;;;;;14.35;3.65;;;15.40;99.90;;;;;;4956363;28;20204;-86
2022/07/11 06:13:32;;;;;;;7.07;2.08;;;15.50;99.90;;;;;;4955382;29;20161;-85
2022/07/11 06:15:58;;;;;;;3.55;1.60;;;15.60;99.90;;;;;;4965997;28;20188;-86
2022/07/11 06:18:24;;;;;;;2.63;1.63;;;15.70;99.90;;;;;;4958770;28;20177;-84
2022/07/11 06:20:50;;;;;;;3.33;1.83;;;15.70;99.90;;;;;;4953248;28;20185;-84
2022/07/11 06:23:16;;;;;;;1.92;1.33;;;15.70;99.90;;;;;;4954169;29;20185;-85
2022/07/11 06:25:42;;;;;;;2.42;1.23;;;15.70;99.90;;;;;;4955302;28;20209;-86
2022/07/11 06:28:08;;;;;;;3.88;1.40;;;15.70;99.90;;;;;;4953497;29;20268;-85
2022/07/11 06:30:34;;;;;;;2.63;1.40;;;15.80;99.90;;;;;;4954419;29;20178;-85
2022/07/11 06:33:00;;;;;;;2.05;1.20;;;15.80;99.90;;;;;;4953610;28;20177;-86
2022/07/11 06:35:26;;;;;;;4.40;1.25;;;16.00;99.90;;;;;;4953911;29;20173;-85
2022/07/11 06:37:52;;;;;;;2.78;1.10;;;16.10;99.90;;;;;;4955652;29;20177;-86
2022/07/11 06:40:18;;;;;;;2.63;1.45;;;16.20;99.90;;;;;;4955081;29;20720;-85
2022/07/11 06:42:45;;;;;;;2.55;1.10;;;16.20;99.90;;;;;;4953568;28;20613;-86
2022/07/11 06:45:11;;;;;;;2.35;1.20;;;16.20;99.90;;;;;;4960285;28;20219;-85
2022/07/11 06:47:36;;;;;;;1.58;1.10;;;16.30;99.90;;;;;;4973519;28;20185;-86
2022/07/11 06:50:02;;;;;;;2.35;1.40;;;16.30;99.90;;;;;;4973631;28;20570;-84
2022/07/11 06:52:28;;;;;;;2.78;1.15;;;16.30;99.90;;;;;;4973329;28;20210;-85
2022/07/11 06:54:54;;;;;;;2.22;1.15;;;16.50;99.90;;;;;;4976909;28;20520;-86
2022/07/11 06:57:20;;;;;;;2.88;1.35;;;16.60;99.90;;;;;;4969560;28;20189;-86
2022/07/11 06:59:45;;;;;;;3.40;1.30;;;16.70;99.90;;;;;;4960467;28;20201;-87
2022/07/11 07:02:12;;;;;;;1.85;0.93;;;16.60;99.90;;;;;;4957577;28;20664;-87
2022/07/11 07:04:38;;;;;;;1.70;0.90;;;16.30;99.90;;;;;;4956302;29;20249;-83
2022/07/11 07:07:03;;;;;;;4.28;1.20;;;16.20;99.90;;;;;;4956589;29;20211;-85
2022/07/11 07:09:29;;;;;;;2.30;1.00;;;16.10;99.90;;;;;;4954588;28;20691;-85
2022/07/11 07:11:57;;;;;;;2.22;1.10;;;16.20;99.90;;;;;;4967998;28;20193;-86
2022/07/11 07:14:23;;;;;;;2.25;1.00;;;16.20;99.90;;;;;;4957222;28;20240;-86
2022/07/11 07:16:49;;;;;;;8.10;1.73;;;16.20;99.90;;;;;;4975971;28;20264;-83
2022/07/11 07:19:14;;;;;;;6.85;1.33;;;16.20;99.90;;;;;;4970940;28;20204;-86
2022/07/11 07:21:40;;;;;;;1.50;0.90;;;16.10;99.90;;;;;;4967285;28;20611;-85
2022/07/11 07:24:06;;;;;;;2.67;0.90;;;16.20;99.90;;;;;;4964333;28;20285;-84
2022/07/11 07:26:32;;;;;;;3.75;1.10;;;16.40;99.90;;;;;;4971995;28;20311;-84
2022/07/11 07:28:58;;;;;;;2.90;1.40;;;16.80;99.90;;;;;;4992086;28;20272;-86
2022/07/11 07:31:24;;;;;;;9.65;1.75;;;17.10;99.90;;;;;;4968338;28;20193;-86
2022/07/11 07:33:51;;;;;;;1.75;0.95;;;17.30;99.90;;;;;;4956816;28;20188;-85
2022/07/11 07:36:17;;;;;;;2.20;1.00;;;17.50;99.90;;;;;;4958127;28;20664;-85
2022/07/11 07:38:46;;;;;;;2.05;0.80;;;17.80;99.90;;;;;;4966653;28;20189;-84
2022/07/11 07:41:13;;;;;;;2.28;0.90;;;18.10;99.90;;;;;;4972854;28;20173;-84
2022/07/11 07:43:38;;;;;;;19.05;1.90;;;18.40;99.90;;;;;;4967189;28;20185;-86
2022/07/11 07:46:04;;;;;;;1.33;0.73;;;18.70;99.90;;;;;;4971212;28;20272;-86
2022/07/11 07:48:30;;;;;;;1.95;0.80;;;18.80;99.10;;;;;;4976388;28;20189;-86
2022/07/11 07:50:56;;;;;;;0.77;0.57;;;18.80;99.90;;;;;;4957059;28;20235;-85
2022/07/11 07:53:22;;;;;;;2.13;1.00;;;18.60;99.80;;;;;;4963864;28;20619;-86
2022/07/11 07:55:49;;;;;;;1.73;0.88;;;18.60;99.90;;;;;;4965011;28;20171;-85
2022/07/11 07:58:15;;;;;;;2.42;0.90;;;18.70;99.90;;;;;;4953671;28;20199;-83
2022/07/11 08:03:25;;;;;;;2.63;0.70;;;18.70;99.60;;;;;;4965406;28;20183;-86
2022/07/11 08:05:50;;;;;;;1.63;0.90;;;18.70;99.90;;;;;;4964786;28;20201;-85
2022/07/11 08:08:16;;;;;;;2.20;0.80;;;18.90;99.90;;;;;;4970941;28;20184;-84
2022/07/11 08:10:42;;;;;;;1.30;0.65;;;19.10;99.90;;;;;;4972794;28;20177;-85
2022/07/11 08:13:07;;;;;;;1.83;0.88;;;19.10;99.50;;;;;;4962907;28;20263;-84
2022/07/11 08:15:33;;;;;;;4.78;1.20;;;18.80;99.70;;;;;;4968979;28;20565;-84
2022/07/11 08:17:59;;;;;;;1.02;0.77;;;18.60;99.90;;;;;;4959383;28;20260;-85
2022/07/11 08:20:25;;;;;;;2.60;0.80;;;18.40;99.90;;;;;;4973352;28;20184;-85
2022/07/11 08:22:51;;;;;;;0.77;0.68;;;18.50;99.90;;;;;;4955795;28;20769;-86
2022/07/11 08:25:17;;;;;;;2.33;1.00;;;18.30;99.90;;;;;;4965160;28;20686;-84
2022/07/11 08:27:43;;;;;;;1.05;0.70;;;18.20;99.90;;;;;;4970806;28;20229;-85
2022/07/11 08:30:09;;;;;;;0.80;0.70;;;18.00;99.90;;;;;;4969506;28;20623;-85
2022/07/11 08:32:40;;;;;;;1.90;0.95;;;17.80;99.90;;;;;;4975231;28;20177;-85
2022/07/11 08:35:06;;;;;;;1.27;0.95;;;17.80;99.90;;;;;;4961222;28;20650;-86
2022/07/11 08:37:32;;;;;;;1.00;0.70;;;18.10;99.90;;;;;;4971886;28;20195;-85
2022/07/11 08:39:58;;;;;;;2.97;0.80;;;18.50;99.90;;;;;;4963834;28;20228;-84
2022/07/11 08:42:28;;;;;;;1.35;0.82;;;18.80;99.90;;;;;;4955097;28;20197;-85
2022/07/11 08:44:55;;;;;;;1.25;0.75;;;19.00;99.60;;;;;;4959863;28;20239;-83
2022/07/11 08:47:21;;;;;;;3.00;0.98;;;19.20;99.60;;;;;;4969706;28;20205;-87
2022/07/11 08:49:48;;;;;;;2.22;0.80;;;19.30;99.70;;;;;;4959395;28;20192;-86
2022/07/11 08:52:16;;;;;;;3.33;1.23;;;19.10;99.60;;;;;;4955297;29;20210;-84
2022/07/11 08:54:41;;;;;;;2.97;1.00;;;18.90;99.90;;;;;;4961781;28;20188;-85
2022/07/11 08:57:08;;;;;;;2.80;1.30;;;18.80;99.90;;;;;;4971146;28;20189;-85
2022/07/11 08:59:36;;;;;;;1.40;0.85;;;18.80;99.90;;;;;;4964078;28;20267;-86
2022/07/11 09:02:05;;;;;;;2.75;0.95;;;18.90;99.90;;;;;;4961997;28;20181;-85
2022/07/11 09:04:32;;;;;;;7.25;0.80;;;19.10;99.40;;;;;;4957542;28;20211;-85
2022/07/11 09:07:01;;;;;;;4.00;1.02;;;19.50;99.50;;;;;;4971456;28;20189;-84
2022/07/11 09:09:28;;;;;;;1.40;0.70;;;19.90;99.00;;;;;;4953268;29;20383;-85
2022/07/11 09:11:56;;;;;;;1.88;0.68;;;20.20;98.70;;;;;;4954188;28;20573;-83
2022/07/11 09:14:30;;;;;;;2.67;0.80;;;20.30;97.70;;;;;;4953537;28;20192;-85
2022/07/11 09:17:01;;;;;;;2.20;0.57;;;20.30;98.80;;;;;;4974966;28;20238;-86
2022/07/11 09:19:30;;;;;;;2.90;0.90;;;20.50;97.00;;;;;;4966169;28;20192;-84
2022/07/11 09:28:01;;;;;;;1.38;0.80;;;20.30;97.80;;;;;;4956244;28;20326;-85
2022/07/11 09:30:39;;;;;;;2.45;0.80;;;20.20;97.60;;;;;;4957158;28;20215;-84
2022/07/11 09:33:10;;;;;;;3.10;0.60;;;20.40;96.80;;;;;;4970790;28;20622;-88
2022/07/11 09:35:39;;;;;;;1.23;0.55;;;20.60;96.30;;;;;;4972081;28;20176;-84
2022/07/11 09:38:06;;;;;;;2.90;0.93;;;20.40;96.60;;;;;;4960895;28;20566;-85
2022/07/11 09:40:33;;;;;;;2.22;0.63;;;20.50;96.70;;;;;;4960887;28;20189;-84
2022/07/11 09:42:59;;;;;;;2.08;0.60;;;20.80;95.90;;;;;;4967298;28;20212;-84
2022/07/11 09:45:32;;;;;;;2.45;1.02;;;20.90;95.50;;;;;;4956443;28;20236;-85
2022/07/11 09:48:00;;;;;;;2.00;0.80;;;20.90;96.50;;;;;;4935704;29;20174;-86
2022/07/11 09:50:30;;;;;;;1.95;0.73;;;20.50;96.40;;;;;;4950485;28;20241;-86
2022/07/11 09:53:02;;;;;;;3.38;1.10;;;20.20;97.10;;;;;;4962485;28;20173;-84
2022/07/11 09:55:29;;;;;;;0.93;0.60;;;20.00;97.00;;;;;;4971523;28;20177;-86
2022/07/11 09:57:55;;;;;;;2.17;0.57;;;20.30;97.20;;;;;;4955652;28;20188;-86
2022/07/11 10:00:21;;;;;;;3.53;0.68;;;20.70;95.70;;;;;;4962555;28;20542;-88
2022/07/11 10:02:47;;;;;;;1.02;0.80;;;20.70;96.00;;;;;;4964970;28;20213;-85
2022/07/11 10:05:13;;;;;;;1.10;0.70;;;20.90;97.10;;;;;;4969129;28;20208;-84
2022/07/11 10:07:38;;;;;;;1.95;0.70;;;21.30;95.80;;;;;;4974049;28;20169;-86
2022/07/11 10:10:06;;;;;;;2.15;0.73;;;21.70;96.00;;;;;;4975220;28;20191;-86
2022/07/11 10:12:33;;;;;;;2.17;0.77;;;21.60;94.90;;;;;;4974913;28;20191;-86
2022/07/11 10:15:04;;;;;;;1.02;0.60;;;21.30;94.30;;;;;;4974995;28;20177;-85
2022/07/11 10:18:07;;;;;;;1.48;0.60;;;20.90;94.70;;;;;;4973776;28;20628;-85
2022/07/11 10:21:09;;;;;;;0.88;0.52;;;20.70;95.80;;;;;;4957442;28;20624;-84
2022/07/11 10:24:22;;;;;;;0.55;0.55;;;20.90;95.70;;;;;;4957456;28;20195;-85
2022/07/11 10:27:27;;;;;;;1.50;0.77;;;21.40;95.80;;;;;;4973812;28;20512;-87
2022/07/11 10:29:53;;;;;;;1.40;0.80;;;21.30;95.30;;;;;;4954746;29;20185;-85
2022/07/11 10:32:19;;;;;;;2.65;0.57;;;21.10;96.30;;;;;;4940354;29;20177;-86
2022/07/11 10:35:08;;;;;;;0.80;0.60;;;21.20;95.70;;;;;;4939213;29;20185;-87
2022/07/11 10:37:52;;;;;;;2.45;0.60;;;21.40;94.20;;;;;;4940434;29;20257;-86
2022/07/11 10:40:54;;;;;;;2.47;0.57;;;21.40;94.90;;;;;;4940437;29;20609;-87
2022/07/11 10:43:20;;;;;;;0.88;0.50;;;21.10;94.10;;;;;;4918714;29;20174;-86
2022/07/11 10:46:05;;;;;;;0.55;0.40;;;21.20;94.80;;;;;;4959311;28;20242;-85
2022/07/11 10:48:34;;;;;;;1.83;0.60;;;21.40;94.10;;;;;;4978875;28;20164;-88
2022/07/11 10:51:24;;;;;;;0.60;0.50;;;21.20;95.20;;;;;;4977350;28;20177;-86
2022/07/11 10:53:51;;;;;;;0.60;0.40;;;20.90;95.40;;;;;;4978270;28;20188;-83
2022/07/11 10:56:54;;;;;;;0.50;0.40;;;20.60;95.40;;;;;;4978239;28;20548;-87
2022/07/11 10:59:20;;;;;;;1.33;0.60;;;20.80;95.50;;;;;;4959221;28;20197;-87
2022/07/11 11:02:11;;;;;;;0.40;0.40;;;21.10;96.00;;;;;;4960469;28;20192;-84
2022/07/11 11:04:49;;;;;;;0.60;0.40;;;21.20;95.50;;;;;;4958841;29;20690;-83
2022/07/11 11:07:34;;;;;;;3.78;0.50;;;21.00;95.90;;;;;;4960590;28;20176;-85
2022/07/11 11:10:01;;;;;;;1.20;0.47;;;20.80;97.30;;;;;;4939868;29;20174;-85
2022/07/11 11:13:04;;;;;;;0.45;0.40;;;20.80;96.40;;;;;;4946165;28;20278;-83
2022/07/11 11:15:46;;;;;;;1.85;0.70;;;21.10;96.30;;;;;;4957409;28;20185;-86
2022/07/11 11:18:26;;;;;;;0.50;0.40;;;21.60;96.50;;;;;;4938399;29;20190;-84
2022/07/11 11:21:06;;;;;;;0.60;0.55;;;21.90;97.70;;;;;;4942250;29;20212;-83
2022/07/11 11:23:33;;;;;;;1.10;0.40;;;22.20;96.20;;;;;;4958645;29;20198;-85
2022/07/11 11:26:08;;;;;;;0.40;0.30;;;22.10;95.20;;;;;;4955362;28;20653;-85
2022/07/11 11:28:35;;;;;;;0.50;0.32;;;21.80;95.50;;;;;;4957414;28;20531;-86
2022/07/11 11:31:07;;;;;;;1.15;0.40;;;21.70;95.50;;;;;;4956300;28;20185;-86
2022/07/11 11:33:35;;;;;;;0.60;0.40;;;21.50;96.60;;;;;;4956703;29;20212;-86
2022/07/11 11:36:12;;;;;;;0.68;0.40;;;21.40;96.50;;;;;;4957404;29;20635;-84
2022/07/11 11:38:40;;;;;;;1.10;0.47;;;21.20;95.60;;;;;;4957908;28;20181;-85
2022/07/11 11:41:07;;;;;;;0.95;0.40;;;21.20;96.40;;;;;;4955200;28;20264;-84
2022/07/11 11:43:34;;;;;;;0.38;0.30;;;21.60;96.00;;;;;;4960667;28;20180;-83
2022/07/11 11:46:01;;;;;;;0.60;0.25;;;22.00;95.00;;;;;;4958480;28;20235;-86
2022/07/11 11:48:31;;;;;;;0.93;0.30;;;22.20;93.80;;;;;;4956394;29;20224;-86
2022/07/11 11:51:05;;;;;;;0.32;0.25;;;22.60;95.10;;;;;;4975422;28;20272;-84
2022/07/11 11:53:39;;;;;;;0.57;0.30;;;22.90;94.30;;;;;;4967530;28;20185;-85
2022/07/11 11:56:22;;;;;;;0.20;0.20;;;23.10;92.80;;;;;;4957238;29;20214;-83
2022/07/11 11:58:49;;;;;;;2.08;0.45;;;23.40;94.00;;;;;;4957752;29;20177;-85
2022/07/11 12:01:20;;;;;;;0.47;0.20;;;23.40;91.30;;;;;;4972062;28;20177;-83
2022/07/11 12:03:55;;;;;;;0.50;0.20;;;22.90;92.30;;;;;;4956345;29;20200;-86
2022/07/11 12:06:29;;;;;;;0.85;0.30;;;22.40;92.90;;;;;;4957502;29;20620;-85
2022/07/11 12:09:09;;;;;;;0.40;0.30;;;22.20;93.50;;;;;;4956949;28;20189;-84
2022/07/11 12:11:35;;;;;;;0.45;0.30;;;22.40;93.20;;;;;;4958151;29;20162;-83
2022/07/11 12:14:07;;;;;;;0.20;0.20;;;22.90;93.00;;;;;;4956851;28;20190;-87
2022/07/11 12:16:43;;;;;;;1.70;0.40;;;23.20;92.50;;;;;;4961880;28;20260;-86
2022/07/11 12:19:11;;;;;;;0.65;0.30;;;23.20;91.60;;;;;;4972915;28;20515;-86
2022/07/11 12:21:41;;;;;;;2.08;0.50;;;22.80;92.20;;;;;;4957790;29;20177;-83
2022/07/11 12:24:11;;;;;;;0.65;0.30;;;22.40;92.70;;;;;;4957158;28;20293;-88
2022/07/11 12:26:39;;;;;;;0.68;0.30;;;22.40;93.00;;;;;;4957232;28;20236;-90
2022/07/11 12:29:19;;;;;;;0.80;0.30;;;22.60;94.10;;;;;;4974757;28;20177;-85
2022/07/11 12:31:59;;;;;;;0.47;0.20;;;23.00;93.50;;;;;;4977003;28;20164;-88
2022/07/11 12:34:43;;;;;;;0.40;0.20;;;23.00;92.00;;;;;;4977027;28;20185;-87
2022/07/11 12:37:10;;;;;;;0.45;0.43;;;22.60;92.70;;;;;;4953756;29;20229;-86
2022/07/11 12:39:38;;;;;;;0.55;0.40;;;22.40;93.30;;;;;;4957635;29;20169;-91
2022/07/11 12:42:24;;;;;;;0.20;0.20;;;22.60;93.80;;;;;;4957710;29;20236;-89
2022/07/11 12:44:58;;;;;;;3.60;0.20;;;22.80;93.30;;;;;;4959468;28;20224;-85
2022/07/11 12:47:27;;;;;;;0.30;0.20;;;23.10;93.90;;;;;;4963494;28;20615;-86
2022/07/11 12:49:53;;;;;;;0.77;0.30;;;23.40;91.70;;;;;;4957448;29;20623;-88
2022/07/11 12:52:19;;;;;;;0.30;0.20;;;23.70;91.90;;;;;;4971732;28;20189;-87
2022/07/11 12:54:45;;;;;;;0.20;0.20;;;23.90;92.00;;;;;;4955738;28;20240;-86
2022/07/11 12:57:16;;;;;;;0.30;0.20;;;23.60;91.20;;;;;;4957081;28;20196;-86
2022/07/11 12:59:42;;;;;;;0.75;0.30;;;23.60;90.90;;;;;;4956712;28;20638;-86
2022/07/11 13:02:11;;;;;;;0.20;0.20;;;23.70;90.80;;;;;;4955471;29;20280;-84
2022/07/11 13:04:38;;;;;;;0.70;0.30;;;23.90;90.80;;;;;;4956847;29;20202;-89
2022/07/11 13:10:25;;;;;;;0.20;0.20;;;24.50;90.40;;;;;;4954471;29;20264;-83